Time;durP1;ratioP1;P1;durP2;ratioP2;P2;SDS_P1;SDS_P2;PMS_P1;PMS_P2;Temp;Humidity;BMP_temperature;BMP_pressure;BME280_temperature;BME280_humidity;BME280_pressure;Samples;Min_cycle;Max_cycle;Signal;HPM_P1;HPM_P2
2021/10/09 00:01:22;;;;;;;;;;;;;;;9.87;96.79;99498.25;4915843;29;19926;-85
2021/10/09 00:03:48;;;;;;;;;;;;;;;9.88;97.22;99492.63;4901040;29;19946;-84
2021/10/09 00:06:13;;;;;;;;;;;;;;;9.88;97.08;99489.16;4900208;29;19923;-84
2021/10/09 00:08:39;;;;;;;;;;;;;;;9.87;96.70;99485.69;4907340;29;19923;-84
2021/10/09 00:11:06;;;;;;;;;;;;;;;9.89;97.05;99493.44;4900227;29;19971;-83
2021/10/09 00:13:31;;;;;;;;;;;;;;;9.91;96.76;99494.81;4900639;29;20002;-82
2021/10/09 00:15:57;;;;;;;;;;;;;;;9.93;96.48;99491.84;4907473;29;20362;-83
2021/10/09 00:18:22;;;;;;;;;;;;;;;9.96;96.91;99495.88;4926100;29;19918;-79
2021/10/09 00:20:47;;;;;;;;;;;;;;;9.97;96.39;99497.47;4922281;29;19934;-82
2021/10/09 00:23:12;;;;;;;;;;;;;;;9.97;96.91;99498.28;4919219;29;20409;-81
2021/10/09 00:25:38;;;;;;;;;;;;;;;9.99;96.90;99496.16;4918801;29;20379;-86
2021/10/09 00:28:03;;;;;;;;;;;;;;;10.01;95.84;99498.56;4918126;29;19927;-84
2021/10/09 00:30:28;;;;;;;;;;;;;;;10.02;95.72;99492.16;4918891;29;19993;-83
2021/10/09 00:32:54;;;;;;;;;;;;;;;10.02;96.10;99492.97;4923016;29;19950;-80
2021/10/09 00:35:19;;;;;;;;;;;;;;;10.03;96.27;99489.25;4918724;29;19934;-80
2021/10/09 00:37:44;;;;;;;;;;;;;;;10.04;95.62;99490.81;4927585;29;20411;-79
2021/10/09 00:40:10;;;;;;;;;;;;;;;10.05;95.72;99487.09;4944082;29;20054;-78
2021/10/09 00:42:35;;;;;;;;;;;;;;;10.04;95.83;99479.34;4934964;29;19915;-80
2021/10/09 00:45:00;;;;;;;;;;;;;;;10.05;96.27;99491.66;4935909;29;20009;-80
2021/10/09 00:47:26;;;;;;;;;;;;;;;10.03;95.88;99485.75;4919199;29;19970;-79
2021/10/09 00:49:51;;;;;;;;;;;;;;;10.00;95.97;99481.75;4919159;29;19926;-79
2021/10/09 00:52:17;;;;;;;;;;;;;;;9.99;96.09;99474.78;4927266;29;20297;-80
2021/10/09 00:54:45;;;;;;;;;;;;;;;9.97;96.25;99476.91;4925389;29;20289;-79
2021/10/09 00:57:13;;;;;;;;;;;;;;;9.97;96.59;99478.78;4918747;29;20013;-80
2021/10/09 00:59:39;;;;;;;;;;;;;;;9.94;96.52;99472.88;4938347;29;20420;-80
2021/10/09 01:02:05;;;;;;;;;;;;;;;9.94;96.74;99467.53;4919425;29;19919;-81
2021/10/09 01:04:31;;;;;;;;;;;;;;;9.92;96.11;99468.88;4945518;29;19918;-84
2021/10/09 01:06:57;;;;;;;;;;;;;;;9.89;96.52;99469.41;4924681;29;19919;-82
2021/10/09 01:09:22;;;;;;;;;;;;;;;9.90;96.74;99460.34;4924983;29;19942;-85
2021/10/09 01:11:47;;;;;;;;;;;;;;;9.89;96.33;99459.50;4918316;29;20350;-82
2021/10/09 01:14:13;;;;;;;;;;;;;;;9.88;95.96;99463.25;4917528;29;19919;-85
2021/10/09 01:16:38;;;;;;;;;;;;;;;9.88;96.12;99465.13;4918175;29;19918;-86
2021/10/09 01:19:05;;;;;;;;;;;;;;;9.87;96.00;99464.31;4918532;29;19926;-83
2021/10/09 01:21:41;;;;;;;;;;;;;;;9.86;96.42;99468.06;4917720;29;19923;-85
2021/10/09 01:24:06;;;;;;;;;;;;;;;9.87;96.36;99475.00;4935884;29;20394;-82
2021/10/09 01:26:32;;;;;;;;;;;;;;;9.88;96.49;99471.25;4917582;29;19946;-81
2021/10/09 01:28:58;;;;;;;;;;;;;;;9.87;96.14;99469.66;4918190;29;20338;-86
2021/10/09 01:31:23;;;;;;;;;;;;;;;9.86;96.26;99464.56;4917914;29;19921;-87
2021/10/09 01:33:48;;;;;;;;;;;;;;;9.87;96.50;99466.97;4918048;29;19919;-87
2021/10/09 01:36:14;;;;;;;;;;;;;;;9.88;96.21;99467.78;4917735;29;19947;-88
2021/10/09 01:38:39;;;;;;;;;;;;;;;9.87;95.98;99472.31;4928297;29;20012;-89
2021/10/09 01:41:05;;;;;;;;;;;;;;;9.87;96.69;99483.00;4921470;29;19926;-87
2021/10/09 01:43:31;;;;;;;;;;;;;;;9.86;95.87;99475.25;4917572;29;19918;-88
2021/10/09 01:45:56;;;;;;;;;;;;;;;9.86;95.87;99475.25;4935976;29;19925;-89
2021/10/09 01:48:31;;;;;;;;;;;;;;;9.84;96.23;99475.53;4939832;29;19919;-89
2021/10/09 01:50:57;;;;;;;;;;;;;;;9.85;95.54;99469.13;4917972;29;19929;-86
2021/10/09 01:53:22;;;;;;;;;;;;;;;9.86;95.90;99468.06;4917308;29;19918;-86
2021/10/09 01:55:47;;;;;;;;;;;;;;;9.84;95.93;99464.84;4917554;29;19925;-88
2021/10/09 01:58:13;;;;;;;;;;;;;;;9.82;95.06;99466.97;4933080;29;20378;-88
2021/10/09 02:00:38;;;;;;;;;;;;;;;9.82;95.97;99469.63;4916816;29;19953;-87
2021/10/09 02:03:05;;;;;;;;;;;;;;;9.82;96.22;99461.63;4928463;29;19924;-87
2021/10/09 02:05:31;;;;;;;;;;;;;;;9.82;95.70;99466.16;4925349;29;19923;-88
2021/10/09 02:07:56;;;;;;;;;;;;;;;9.84;95.96;99474.72;4917783;29;20385;-89
2021/10/09 02:10:22;;;;;;;;;;;;;;;9.84;96.05;99466.69;4916487;29;20377;-90
2021/10/09 02:12:47;;;;;;;;;;;;;;;9.83;96.25;99475.78;4917284;29;19925;-87
2021/10/09 02:15:16;;;;;;;;;;;;;;;9.81;95.63;99467.22;4917145;29;20009;-86
2021/10/09 02:25:44;;;;;;;;;;;;;;;9.83;95.52;99475.78;4940117;29;19921;-89
2021/10/09 02:28:10;;;;;;;;;;;;;;;9.84;95.92;99485.38;4926866;29;19923;-91
2021/10/09 02:30:35;;;;;;;;;;;;;;;9.84;95.58;99480.06;4916827;29;19914;-90
2021/10/09 02:33:01;;;;;;;;;;;;;;;9.85;95.49;99476.31;4917167;29;19961;-89
2021/10/09 02:35:26;;;;;;;;;;;;;;;9.85;95.96;99476.31;4917170;29;19915;-88
2021/10/09 02:37:52;;;;;;;;;;;;;;;9.84;95.58;99474.72;4918448;29;19957;-87
2021/10/09 02:40:17;;;;;;;;;;;;;;;9.82;95.53;99476.84;4931166;29;19918;-89
2021/10/09 02:42:43;;;;;;;;;;;;;;;9.81;95.81;99475.25;4937159;29;19920;-92
2021/10/09 02:45:08;;;;;;;;;;;;;;;9.81;95.68;99480.59;4928340;29;20354;-87
2021/10/09 02:47:33;;;;;;;;;;;;;;;9.81;95.48;99488.59;4916293;29;19954;-88
2021/10/09 02:49:59;;;;;;;;;;;;;;;9.80;95.21;99481.66;4917307;29;19914;-89
2021/10/09 02:52:24;;;;;;;;;;;;;;;9.76;94.96;99484.84;4917284;29;19914;-82
2021/10/09 02:54:49;;;;;;;;;;;;;;;9.75;94.99;99477.06;4916624;29;19962;-81
2021/10/09 02:57:15;;;;;;;;;;;;;;;9.72;95.50;99481.06;4920842;29;19919;-79
2021/10/09 02:59:40;;;;;;;;;;;;;;;9.70;95.20;99477.84;4931525;29;20011;-79
2021/10/09 03:02:06;;;;;;;;;;;;;;;9.70;94.75;99480.50;4919663;29;20428;-82
2021/10/09 03:04:31;;;;;;;;;;;;;;;9.70;94.63;99477.06;4923484;29;19973;-81
2021/10/09 03:06:56;;;;;;;;;;;;;;;9.67;94.61;99478.38;4924042;29;19956;-86
2021/10/09 03:09:22;;;;;;;;;;;;;;;9.66;94.77;99482.09;4917331;29;20378;-87
2021/10/09 03:11:47;;;;;;;;;;;;;;;9.66;94.96;99478.66;4916193;29;19919;-86
2021/10/09 03:14:12;;;;;;;;;;;;;;;9.64;94.77;99480.75;4916605;29;20343;-85
2021/10/09 03:16:38;;;;;;;;;;;;;;;9.65;95.18;99480.50;4916024;29;19919;-92
2021/10/09 03:19:03;;;;;;;;;;;;;;;9.64;94.82;99467.41;4916989;29;20390;-87
2021/10/09 03:21:28;;;;;;;;;;;;;;;9.64;95.25;99472.75;4916039;29;19919;-85
2021/10/09 03:23:53;;;;;;;;;;;;;;;9.62;94.94;99475.69;4917107;29;19914;-84
2021/10/09 03:26:19;;;;;;;;;;;;;;;9.62;95.12;99475.69;4915834;29;19922;-82
2021/10/09 03:28:44;;;;;;;;;;;;;;;9.63;95.38;99471.13;4933262;29;20013;-84
2021/10/09 03:31:09;;;;;;;;;;;;;;;9.63;95.04;99479.97;4916430;29;20283;-83
2021/10/09 03:33:35;;;;;;;;;;;;;;;9.64;95.71;99481.56;4919171;29;20013;-86
2021/10/09 03:36:00;;;;;;;;;;;;;;;9.65;95.45;99477.81;4916512;29;20384;-85
2021/10/09 03:38:26;;;;;;;;;;;;;;;9.64;95.49;99481.56;4930080;29;19918;-88
2021/10/09 03:40:57;;;;;;;;;;;;;;;9.63;95.56;99482.66;4919725;29;20490;-87
2021/10/09 03:43:24;;;;;;;;;;;;;;;9.64;95.83;99480.75;4919236;29;19915;-82
2021/10/09 03:45:59;;;;;;;;;;;;;;;9.65;95.34;99485.03;4919655;29;19929;-85
2021/10/09 03:53:36;;;;;;;;;;;;;;;9.61;95.97;99503.44;4913685;29;19990;-85
2021/10/09 03:56:01;;;;;;;;;;;;;;;9.60;95.82;99507.19;4920380;29;20370;-85
2021/10/09 03:58:27;;;;;;;;;;;;;;;9.61;95.69;99506.13;4919433;29;19918;-84
2021/10/09 04:00:52;;;;;;;;;;;;;;;9.59;95.94;99510.91;4923982;29;19922;-85
2021/10/09 04:03:17;;;;;;;;;;;;;;;9.58;95.68;99504.78;4918759;29;19925;-83
2021/10/09 04:05:43;;;;;;;;;;;;;;;9.58;95.44;99504.78;4919263;29;20390;-83
2021/10/09 04:08:08;;;;;;;;;;;;;;;9.59;95.62;99510.91;4919385;29;19918;-78
2021/10/09 04:10:34;;;;;;;;;;;;;;;9.57;95.56;99511.16;4918625;29;19919;-78
2021/10/09 04:12:59;;;;;;;;;;;;;;;9.57;95.60;99507.69;4922400;29;20090;-84
2021/10/09 04:15:25;;;;;;;;;;;;;;;9.57;95.31;99503.16;4932600;29;19993;-85
2021/10/09 04:17:50;;;;;;;;;;;;;;;9.54;94.83;99509.00;4931156;29;19930;-81
2021/10/09 04:20:15;;;;;;;;;;;;;;;9.52;95.28;99510.31;4919308;29;20009;-81
2021/10/09 04:22:41;;;;;;;;;;;;;;;9.50;95.55;99520.47;4919229;29;19933;-80
2021/10/09 04:25:06;;;;;;;;;;;;;;;9.48;95.18;99511.91;4950487;29;19939;-80
2021/10/09 04:27:31;;;;;;;;;;;;;;;9.49;95.45;99518.88;4919679;29;19997;-81
2021/10/09 04:29:57;;;;;;;;;;;;;;;9.48;95.63;99506.56;4923315;29;20358;-82
2021/10/09 04:32:22;;;;;;;;;;;;;;;9.52;96.07;99500.47;4953161;29;19950;-87
2021/10/09 04:34:47;;;;;;;;;;;;;;;9.50;95.80;99504.47;4932792;29;19941;-85
2021/10/09 04:37:13;;;;;;;;;;;;;;;9.51;95.76;99514.06;4924080;29;20013;-80
2021/10/09 04:39:38;;;;;;;;;;;;;;;9.50;96.08;99517.81;4919435;29;19919;-87
2021/10/09 04:42:03;;;;;;;;;;;;;;;9.51;96.15;99514.06;4919328;29;19965;-87
2021/10/09 04:44:29;;;;;;;;;;;;;;;9.50;96.34;99526.59;4925241;29;19918;-85
2021/10/09 04:46:54;;;;;;;;;;;;;;;9.47;96.12;99524.44;4919722;29;19918;-86
2021/10/09 04:49:19;;;;;;;;;;;;;;;9.49;96.02;99529.53;4918320;29;19929;-85
2021/10/09 04:51:45;;;;;;;;;;;;;;;9.49;96.26;99529.53;4930862;29;19918;-84
2021/10/09 04:54:10;;;;;;;;;;;;;;;9.50;96.66;99528.50;4937029;29;20353;-83
2021/10/09 04:56:36;;;;;;;;;;;;;;;9.51;96.37;99533.56;4930074;29;19953;-85
2021/10/09 04:59:01;;;;;;;;;;;;;;;9.52;96.32;99529.84;4918596;29;19919;-86
2021/10/09 05:01:27;;;;;;;;;;;;;;;9.53;96.64;99528.78;4917915;29;20290;-86
2021/10/09 05:03:52;;;;;;;;;;;;;;;9.54;96.47;99534.91;4918120;29;19958;-83
2021/10/09 05:06:17;;;;;;;;;;;;;;;9.55;96.66;99533.84;4935632;29;19929;-84
2021/10/09 05:08:43;;;;;;;;;;;;;;;9.53;95.94;99538.63;4901783;29;20405;-84
2021/10/09 05:11:09;;;;;;;;;;;;;;;9.55;96.98;99540.00;4914514;29;19918;-82
2021/10/09 05:13:35;;;;;;;;;;;;;;;9.59;96.78;99545.63;4914409;29;19946;-82
2021/10/09 05:16:00;;;;;;;;;;;;;;;9.59;96.09;99546.44;4916056;29;19972;-81
2021/10/09 05:18:25;;;;;;;;;;;;;;;9.60;95.91;99547.22;4899125;29;20442;-85
2021/10/09 05:20:51;;;;;;;;;;;;;;;9.61;95.93;99549.63;4912764;29;19914;-85
2021/10/09 05:23:16;;;;;;;;;;;;;;;9.65;95.55;99546.47;4915680;29;19919;-84
2021/10/09 05:25:43;;;;;;;;;;;;;;;9.65;95.37;99552.59;4907813;29;19930;-85
2021/10/09 05:28:15;;;;;;;;;;;;;;;9.63;95.35;99546.72;4918211;29;20017;-83
2021/10/09 05:30:46;;;;;;;;;;;;;;;9.64;95.31;99560.88;4917299;29;19965;-81
2021/10/09 05:35:37;;;;;;;;;;;;;;;9.65;95.43;99568.63;4934128;29;19915;-79
2021/10/09 05:38:03;;;;;;;;;;;;;;;9.65;95.25;99576.63;4917840;29;19934;-78
2021/10/09 05:40:28;;;;;;;;;;;;;;;9.65;95.21;99578.50;4933976;29;19946;-79
2021/10/09 05:42:53;;;;;;;;;;;;;;;9.66;95.13;99577.47;4917791;29;19919;-82
2021/10/09 05:45:18;;;;;;;;;;;;;;;9.64;94.72;99576.91;4917662;29;19915;-82
2021/10/09 05:47:45;;;;;;;;;;;;;;;9.63;94.80;99575.28;4917804;29;19961;-85
2021/10/09 05:50:12;;;;;;;;;;;;;;;9.60;95.39;99571.25;4918002;29;19915;-79
2021/10/09 05:52:57;;;;;;;;;;;;;;;9.58;95.11;99579.53;4942430;29;19934;-78
2021/10/09 05:55:33;;;;;;;;;;;;;;;9.56;95.01;99583.53;4923723;29;19915;-78
2021/10/09 06:44:50;;;;;;;;;;;;;;;9.34;95.08;99623.63;4933687;29;19953;-81
2021/10/09 07:00:23;;;;;;;;;;;;;;;9.29;95.71;99635.88;4933579;29;19965;-82
2021/10/09 07:02:49;;;;;;;;;;;;;;;9.29;96.23;99635.88;4916418;29;19918;-83
2021/10/09 07:05:15;;;;;;;;;;;;;;;9.32;95.63;99642.59;4917104;29;20001;-81
2021/10/09 07:07:43;;;;;;;;;;;;;;;9.33;95.67;99646.88;4916294;29;19923;-80
2021/10/09 07:10:09;;;;;;;;;;;;;;;9.33;94.61;99652.22;4915768;29;19919;-81
2021/10/09 07:12:35;;;;;;;;;;;;;;;9.32;95.33;99647.13;4916365;29;20013;-89
2021/10/09 07:15:00;;;;;;;;;;;;;;;9.33;95.49;99654.88;4933259;29;20406;-76
2021/10/09 07:17:25;;;;;;;;;;;;;;;9.32;95.54;99649.78;4937017;29;19919;-78
2021/10/09 07:19:51;;;;;;;;;;;;;;;9.32;95.81;99650.59;4924248;29;19914;-78
2021/10/09 07:22:16;;;;;;;;;;;;;;;9.34;95.88;99645.81;4951028;29;20341;-79
2021/10/09 07:24:41;;;;;;;;;;;;;;;9.34;96.10;99645.00;4930223;29;19970;-83
2021/10/09 07:27:07;;;;;;;;;;;;;;;9.36;95.83;99654.38;4939534;29;19936;-84
2021/10/09 07:29:32;;;;;;;;;;;;;;;9.37;96.55;99661.31;4922843;29;19922;-84
2021/10/09 07:31:57;;;;;;;;;;;;;;;9.40;96.22;99662.69;4920386;29;20049;-78
2021/10/09 07:34:22;;;;;;;;;;;;;;;9.42;96.10;99663.22;4936920;29;19950;-76
2021/10/09 07:36:48;;;;;;;;;;;;;;;9.43;95.97;99665.63;4937118;29;19918;-76
2021/10/09 07:39:13;;;;;;;;;;;;;;;9.44;96.46;99666.47;4937404;29;19915;-79
2021/10/09 07:41:38;;;;;;;;;;;;;;;9.46;96.16;99659.00;4926823;29;19919;-78
2021/10/09 07:44:04;;;;;;;;;;;;;;;9.43;96.21;99665.63;4919946;29;19954;-81
2021/10/09 07:46:29;;;;;;;;;;;;;;;9.42;96.22;99661.38;4919603;29;20010;-86
2021/10/09 07:48:54;;;;;;;;;;;;;;;9.44;96.05;99658.44;4919827;29;20396;-82
2021/10/09 07:51:20;;;;;;;;;;;;;;;9.46;96.09;99664.34;4919051;29;20378;-84
2021/10/09 07:53:45;;;;;;;;;;;;;;;9.49;96.41;99674.50;4919373;29;19922;-75
2021/10/09 07:56:10;;;;;;;;;;;;;;;9.53;96.43;99674.81;4937521;29;19922;-75
2021/10/09 07:58:36;;;;;;;;;;;;;;;9.54;96.11;99663.88;4937115;29;20005;-78
2021/10/09 08:01:01;;;;;;;;;;;;;;;9.54;95.97;99663.88;4937310;29;19921;-78
2021/10/09 08:03:26;;;;;;;;;;;;;;;9.56;96.35;99667.09;4921382;29;19919;-78
2021/10/09 08:05:52;;;;;;;;;;;;;;;9.61;96.42;99666.34;4911081;29;19919;-78
2021/10/09 08:08:18;;;;;;;;;;;;;;;9.66;96.13;99668.25;4936525;29;19970;-77
2021/10/09 08:10:45;;;;;;;;;;;;;;;9.70;96.20;99674.69;4931165;29;19966;-78
2021/10/09 08:13:11;;;;;;;;;;;;;;;9.71;95.41;99673.63;4918207;29;19914;-75
2021/10/09 08:15:36;;;;;;;;;;;;;;;9.70;96.12;99670.16;4938919;29;20001;-77
2021/10/09 08:18:01;;;;;;;;;;;;;;;9.71;95.52;99666.41;4942503;29;19946;-79
2021/10/09 08:20:26;;;;;;;;;;;;;;;9.69;94.95;99665.06;4927800;29;19950;-80
2021/10/09 08:23:01;;;;;;;;;;;;;;;9.65;94.65;99658.63;4934498;29;19918;-92
2021/10/09 08:36:17;;;;;;;;;;;;;;;9.63;96.04;99671.44;4937287;29;19921;-88
2021/10/09 08:41:08;;;;;;;;;;;;;;;9.63;95.55;99674.09;4936599;29;19970;-92
2021/10/09 08:43:34;;;;;;;;;;;;;;;9.63;95.95;99674.91;4922235;29;19914;-77
2021/10/09 08:45:59;;;;;;;;;;;;;;;9.61;96.31;99671.69;4918879;29;19915;-81
2021/10/09 08:48:28;;;;;;;;;;;;;;;9.62;96.58;99675.97;4938293;29;19915;-77
2021/10/09 08:50:54;;;;;;;;;;;;;;;9.64;96.70;99678.38;4917986;29;19999;-77
2021/10/09 08:53:33;;;;;;;;;;;;;;;9.63;96.14;99674.09;4935299;29;19915;-76
2021/10/09 08:55:58;;;;;;;;;;;;;;;9.64;96.26;99681.84;4935234;29;19919;-76
2021/10/09 08:58:27;;;;;;;;;;;;;;;9.62;96.63;99675.97;4934638;29;19915;-76
2021/10/09 09:03:27;;;;;;;;;;;;;;;9.65;95.78;99674.66;4935824;29;19926;-78
2021/10/09 09:09:08;;;;;;;;;;;;;;;9.65;95.84;99672.00;4935880;29;20314;-92
2021/10/09 09:34:10;;;;;;;;;;;;;;;9.78;95.76;99690.25;4955743;29;19961;-91
2021/10/09 09:39:11;;;;;;;;;;;;;;;9.77;95.78;99692.09;4935573;29;20373;-91
2021/10/09 09:41:45;;;;;;;;;;;;;;;9.78;95.90;99696.41;4934744;29;19915;-90
2021/10/09 09:44:12;;;;;;;;;;;;;;;9.79;96.14;99702.56;4902025;29;20457;-88
2021/10/09 09:46:45;;;;;;;;;;;;;;;9.80;96.00;99700.69;4943275;29;19921;-92
2021/10/09 09:49:30;;;;;;;;;;;;;;;9.81;96.34;99702.28;4930941;29;20417;-90
2021/10/09 09:51:56;;;;;;;;;;;;;;;9.78;95.85;99706.28;4918893;29;19922;-89
2021/10/09 09:54:26;;;;;;;;;;;;;;;9.78;96.20;99696.41;4922830;29;19910;-92
2021/10/09 09:56:55;;;;;;;;;;;;;;;9.81;96.33;99708.44;4939684;29;20346;-85
2021/10/09 09:59:26;;;;;;;;;;;;;;;9.81;96.59;99705.75;4921643;29;19926;-93
2021/10/09 10:01:52;;;;;;;;;;;;;;;9.84;96.43;99699.09;4920730;29;20396;-91
2021/10/09 10:04:17;;;;;;;;;;;;;;;9.86;95.80;99702.34;4920293;29;20363;-90
2021/10/09 10:06:43;;;;;;;;;;;;;;;9.86;95.51;99699.66;4920032;29;19915;-90
2021/10/09 10:09:09;;;;;;;;;;;;;;;9.84;96.31;99691.09;4920477;29;19915;-95
2021/10/09 10:11:35;;;;;;;;;;;;;;;9.86;96.40;99692.47;4921009;29;19921;-93
2021/10/09 10:14:01;;;;;;;;;;;;;;;9.88;96.64;99690.31;4921184;29;20381;-92
2021/10/09 10:16:27;;;;;;;;;;;;;;;9.87;95.94;99693.25;4919400;29;19918;-91
2021/10/09 10:18:54;;;;;;;;;;;;;;;9.87;96.30;99693.25;4919281;29;19950;-89
2021/10/09 10:21:36;;;;;;;;;;;;;;;9.89;96.27;99688.47;4918411;29;19927;-88
2021/10/09 10:24:01;;;;;;;;;;;;;;;9.91;96.34;99692.50;4930158;29;19919;-94
2021/10/09 10:26:30;;;;;;;;;;;;;;;9.90;95.76;99690.88;4905655;29;19915;-91
2021/10/09 10:28:55;;;;;;;;;;;;;;;9.93;96.28;99686.91;4917201;29;19919;-87
2021/10/09 10:31:21;;;;;;;;;;;;;;;9.94;95.73;99686.63;4917242;29;19918;-82
2021/10/09 10:33:49;;;;;;;;;;;;;;;9.96;96.05;99688.25;4920031;29;19957;-85
2021/10/09 10:36:35;;;;;;;;;;;;;;;10.00;96.07;99697.38;4936420;29;20021;-86
2021/10/09 10:39:00;;;;;;;;;;;;;;;10.01;95.18;99686.44;4936486;29;19919;-91
2021/10/09 10:41:38;;;;;;;;;;;;;;;10.02;95.65;99692.56;4968996;28;19918;-88
2021/10/09 10:44:05;;;;;;;;;;;;;;;10.05;95.53;99689.41;4934557;29;19923;-85
2021/10/09 10:46:44;;;;;;;;;;;;;;;10.04;95.15;99695.78;4918796;29;19966;-92
2021/10/09 10:59:29;;;;;;;;;;;;;;;10.09;95.39;99683.28;4938290;29;19922;-80
2021/10/09 11:02:09;;;;;;;;;;;;;;;10.12;95.42;99681.16;4936288;29;19973;-80
2021/10/09 11:04:35;;;;;;;;;;;;;;;10.14;96.07;99682.50;4919418;29;20454;-82
2021/10/09 11:07:01;;;;;;;;;;;;;;;10.19;95.19;99679.06;4901966;29;19923;-74
2021/10/09 11:09:27;;;;;;;;;;;;;;;10.20;95.11;99684.13;4918854;29;19915;-76
2021/10/09 11:11:52;;;;;;;;;;;;;;;10.23;95.07;99680.97;4932087;29;19914;-76
2021/10/09 11:14:27;;;;;;;;;;;;;;;10.24;95.55;99677.22;4919668;29;19919;-76
2021/10/09 11:17:03;;;;;;;;;;;;;;;10.29;94.56;99686.34;4935675;29;19918;-76
2021/10/09 11:19:47;;;;;;;;;;;;;;;10.30;94.53;99679.94;4903370;29;20395;-78
2021/10/09 11:22:14;;;;;;;;;;;;;;;10.33;94.69;99680.22;4918732;29;20010;-77
2021/10/09 11:24:43;;;;;;;;;;;;;;;10.35;95.03;99679.94;4918496;29;19915;-76
2021/10/09 11:27:09;;;;;;;;;;;;;;;10.36;94.48;99684.25;4918712;29;19915;-77
2021/10/09 11:29:34;;;;;;;;;;;;;;;10.38;94.12;99674.13;4918654;29;19922;-76
2021/10/09 11:32:01;;;;;;;;;;;;;;;10.40;94.85;99683.50;4963883;28;19922;-78
2021/10/09 11:34:26;;;;;;;;;;;;;;;10.42;95.25;99677.88;4967629;28;19918;-79
2021/10/09 11:36:53;;;;;;;;;;;;;;;10.47;94.55;99685.94;4918274;29;19918;-80
2021/10/09 11:39:21;;;;;;;;;;;;;;;10.50;94.52;99689.97;4919476;29;20425;-78
2021/10/09 11:42:11;;;;;;;;;;;;;;;10.50;93.86;99680.06;4932287;29;19949;-78
2021/10/09 11:44:42;;;;;;;;;;;;;;;10.52;94.90;99690.50;4942305;29;20001;-86
2021/10/09 11:55:16;;;;;;;;;;;;;;;10.49;93.17;99677.66;4940008;29;19970;-75
2021/10/09 11:57:43;;;;;;;;;;;;;;;10.49;93.84;99675.78;4952209;29;19918;-75
2021/10/09 12:00:27;;;;;;;;;;;;;;;10.46;94.54;99678.16;4948387;29;19958;-79
2021/10/09 12:02:52;;;;;;;;;;;;;;;10.45;94.37;99672.03;4918454;29;20010;-78
2021/10/09 12:05:17;;;;;;;;;;;;;;;10.45;94.60;99682.72;4935522;29;20013;-79
2021/10/09 12:07:42;;;;;;;;;;;;;;;10.44;94.35;99683.00;4935423;29;20385;-79
2021/10/09 12:10:16;;;;;;;;;;;;;;;10.46;94.06;99683.53;4919631;29;19957;-79
2021/10/09 12:12:47;;;;;;;;;;;;;;;10.45;94.09;99680.06;4922164;29;20386;-79
2021/10/09 12:15:23;;;;;;;;;;;;;;;10.45;94.21;99677.38;4916937;29;20312;-77
2021/10/09 12:17:48;;;;;;;;;;;;;;;10.47;94.36;99677.13;4917062;29;19984;-79
2021/10/09 12:20:14;;;;;;;;;;;;;;;10.46;93.65;99676.31;4899991;29;19958;-78
2021/10/09 12:22:42;;;;;;;;;;;;;;;10.46;93.71;99672.81;4916860;29;20390;-78
2021/10/09 12:25:17;;;;;;;;;;;;;;;10.46;94.38;99673.66;4917565;29;20391;-78
2021/10/09 12:27:44;;;;;;;;;;;;;;;10.48;93.89;99662.69;4917157;29;19915;-78
2021/10/09 12:30:12;;;;;;;;;;;;;;;10.45;93.86;99665.88;4930907;29;21483;-82
2021/10/09 12:32:42;;;;;;;;;;;;;;;10.45;93.54;99668.53;4914594;29;19919;-87
2021/10/09 12:35:16;;;;;;;;;;;;;;;10.41;93.83;99665.56;4900379;29;20417;-85
2021/10/09 12:37:54;;;;;;;;;;;;;;;10.39;94.43;99660.50;4915343;29;20054;-83
2021/10/09 12:40:19;;;;;;;;;;;;;;;10.38;94.26;99664.22;4900211;29;19947;-84
2021/10/09 12:42:50;;;;;;;;;;;;;;;10.40;94.21;99666.66;4901919;29;20351;-83
2021/10/09 12:45:15;;;;;;;;;;;;;;;10.41;94.67;99666.41;4900589;29;20009;-76
2021/10/09 12:47:41;;;;;;;;;;;;;;;10.43;94.72;99678.72;4917155;29;19962;-76
2021/10/09 12:50:07;;;;;;;;;;;;;;;10.44;94.76;99666.94;4916899;29;19921;-76
2021/10/09 12:52:32;;;;;;;;;;;;;;;10.46;94.78;99673.66;4916525;29;20401;-77
2021/10/09 12:54:57;;;;;;;;;;;;;;;10.46;95.11;99673.66;4915605;29;20013;-78
2021/10/09 12:57:22;;;;;;;;;;;;;;;10.51;94.74;99670.16;4900079;29;19922;-77
2021/10/09 12:59:48;;;;;;;;;;;;;;;10.48;93.31;99676.06;4916755;29;19926;-80
2021/10/09 13:02:14;;;;;;;;;;;;;;;10.46;94.57;99668.31;4900035;29;20358;-80
2021/10/09 13:04:40;;;;;;;;;;;;;;;10.45;93.67;99665.88;4899627;29;19925;-77
2021/10/09 13:07:06;;;;;;;;;;;;;;;10.47;94.14;99669.09;4898071;29;20302;-77
2021/10/09 13:09:31;;;;;;;;;;;;;;;10.47;94.33;99669.88;4897733;29;19922;-77
2021/10/09 13:11:59;;;;;;;;;;;;;;;10.48;94.39;99673.38;4897979;29;19915;-77
2021/10/09 13:14:24;;;;;;;;;;;;;;;10.46;94.69;99668.31;4912741;29;19914;-78
2021/10/09 13:16:50;;;;;;;;;;;;;;;10.46;94.58;99664.81;4938111;29;19922;-86
2021/10/09 13:19:16;;;;;;;;;;;;;;;10.48;94.87;99665.34;4928684;29;19918;-85
2021/10/09 13:21:41;;;;;;;;;;;;;;;10.48;94.74;99666.16;4931546;29;19977;-92
2021/10/09 13:24:06;;;;;;;;;;;;;;;10.50;94.95;99658.69;4921894;29;19918;-93
2021/10/09 13:26:32;;;;;;;;;;;;;;;10.52;94.47;99661.09;4920027;29;19958;-91
2021/10/09 13:29:00;;;;;;;;;;;;;;;10.53;94.89;99663.53;4922483;29;19915;-92
2021/10/09 13:31:25;;;;;;;;;;;;;;;10.57;94.64;99661.94;4938404;29;19915;-92
2021/10/09 13:33:52;;;;;;;;;;;;;;;10.57;94.15;99658.47;4938166;29;19969;-92
2021/10/09 13:36:17;;;;;;;;;;;;;;;10.59;94.92;99664.34;4938375;29;19950;-93
2021/10/09 13:38:44;;;;;;;;;;;;;;;10.60;94.14;99663.28;4938286;29;19921;-92
2021/10/09 13:41:10;;;;;;;;;;;;;;;10.60;94.58;99662.47;4938421;29;19978;-92
2021/10/09 13:43:35;;;;;;;;;;;;;;;10.63;94.48;99661.94;4938698;29;19914;-92
2021/10/09 13:46:01;;;;;;;;;;;;;;;10.62;94.25;99660.31;4938557;29;19985;-91
2021/10/09 13:48:46;;;;;;;;;;;;;;;10.64;94.70;99656.31;4938474;29;19914;-96
2021/10/09 13:51:13;;;;;;;;;;;;;;;10.64;94.71;99659.00;4932418;29;20377;-93
2021/10/09 13:53:40;;;;;;;;;;;;;;;10.63;93.78;99665.44;4938262;29;19917;-93
2021/10/09 13:56:05;;;;;;;;;;;;;;;10.65;94.26;99665.16;4942430;29;20130;-93
2021/10/09 13:58:30;;;;;;;;;;;;;;;10.64;94.43;99661.69;4942832;29;19949;-92
2021/10/09 14:00:55;;;;;;;;;;;;;;;10.66;94.46;99664.91;4937130;29;19910;-89
2021/10/09 14:03:21;;;;;;;;;;;;;;;10.69;94.31;99669.75;4937791;29;19914;-88
2021/10/09 14:05:47;;;;;;;;;;;;;;;10.71;93.38;99672.94;4936461;29;19921;-88
2021/10/09 14:08:12;;;;;;;;;;;;;;;10.71;93.98;99674.81;4937517;29;19921;-88
2021/10/09 14:10:38;;;;;;;;;;;;;;;10.72;93.99;99677.22;4937889;29;20309;-90
2021/10/09 14:13:05;;;;;;;;;;;;;;;10.70;94.51;99676.69;4936972;29;19953;-91
2021/10/09 14:15:31;;;;;;;;;;;;;;;10.71;94.16;99683.66;4937878;29;19924;-90
2021/10/09 14:17:56;;;;;;;;;;;;;;;10.72;94.23;99679.13;4939645;29;19918;-90
2021/10/09 14:20:21;;;;;;;;;;;;;;;10.71;93.94;99688.19;4937847;29;19921;-90
2021/10/09 14:22:47;;;;;;;;;;;;;;;10.68;94.32;99672.66;4937051;29;19915;-86
2021/10/09 14:25:12;;;;;;;;;;;;;;;10.70;93.69;99682.03;4936181;28;20398;-88
2021/10/09 14:27:38;;;;;;;;;;;;;;;10.68;94.44;99681.50;4936504;29;19921;-89
2021/10/09 14:30:04;;;;;;;;;;;;;;;10.68;94.21;99676.16;4937080;29;20293;-90
2021/10/09 14:32:30;;;;;;;;;;;;;;;10.67;93.91;99677.22;4937491;29;19922;-89
2021/10/09 14:34:55;;;;;;;;;;;;;;;10.67;93.70;99677.22;4936607;29;19915;-86
2021/10/09 14:37:20;;;;;;;;;;;;;;;10.66;94.25;99674.81;4936868;29;19919;-91
2021/10/09 14:39:46;;;;;;;;;;;;;;;10.64;94.30;99683.06;4937709;29;19914;-89
2021/10/09 14:42:12;;;;;;;;;;;;;;;10.64;94.00;99675.03;4936856;29;20005;-91
2021/10/09 14:44:37;;;;;;;;;;;;;;;10.63;93.98;99675.31;4936343;29;20382;-90
2021/10/09 14:49:59;;;;;;;;;;;;;;;10.54;93.65;99691.06;4926069;29;19919;-90
2021/10/09 14:55:14;;;;;;;;;;;;;;;10.50;95.03;99696.13;4953473;29;19925;-89
2021/10/09 15:19:31;;;;;;;;;;;;;;;10.42;95.52;99709.97;4943984;29;19926;-94
2021/10/09 15:21:56;;;;;;;;;;;;;;;10.41;95.29;99711.03;4937509;29;19914;-94
2021/10/09 15:24:22;;;;;;;;;;;;;;;10.36;95.31;99698.47;4938127;29;19914;-95
2021/10/09 15:26:47;;;;;;;;;;;;;;;10.31;96.13;99700.25;4937685;29;20366;-95
2021/10/09 15:29:12;;;;;;;;;;;;;;;10.25;95.62;99704.75;4937002;29;20361;-88
2021/10/09 15:31:38;;;;;;;;;;;;;;;10.22;95.96;99699.94;4923553;29;19941;-87
2021/10/09 15:34:03;;;;;;;;;;;;;;;10.19;97.06;99706.59;4932158;29;20001;-87
2021/10/09 15:36:29;;;;;;;;;;;;;;;10.15;97.36;99710.03;4936008;28;20016;-87